TimeCDT,TemperatureF,Dew PointF,Humidity,Sea Level PressureIn,VisibilityMPH,Wind Direction,Wind SpeedMPH,Gust SpeedMPH,PrecipitationIn,Events,Conditions,WindDirDegrees,DateUTC
12:53 AM,73.9,71.1,91,30.07,9.0,Calm,Calm,-,N/A,,Clear,0,2013-06-24 05:53:00
1:53 AM,73.9,71.1,91,30.07,9.0,Calm,Calm,-,N/A,,Clear,0,2013-06-24 06:53:00
2:53 AM,72.0,71.1,97,30.07,7.0,Calm,Calm,-,N/A,,Clear,0,2013-06-24 07:53:00
3:53 AM,72.0,71.1,97,30.08,5.0,Calm,Calm,-,N/A,,Clear,0,2013-06-24 08:53:00
4:53 AM,72.0,71.1,97,30.09,5.0,Calm,Calm,-,N/A,,Clear,0,2013-06-24 09:53:00
5:53 AM,72.0,71.1,97,30.09,4.0,Calm,Calm,-,N/A,,Clear,0,2013-06-24 10:53:00
6:10 AM,71.6,71.6,100,30.11,2.5,SSE,3.5,-,N/A,,Clear,150,2013-06-24 11:10:00
6:25 AM,71.6,71.6,100,30.12,4.0,Calm,Calm,-,N/A,,Clear,0,2013-06-24 11:25:00
6:53 AM,73.9,72.0,93,30.11,5.0,Calm,Calm,-,N/A,,Clear,0,2013-06-24 11:53:00
7:53 AM,77.0,73.9,90,30.12,7.0,Calm,Calm,-,N/A,,Clear,0,2013-06-24 12:53:00
8:53 AM,81.0,73.0,77,30.13,10.0,Variable,3.5,-,N/A,,Clear,0,2013-06-24 13:53:00
9:53 AM,82.9,73.9,74,30.13,10.0,SW,3.5,-,N/A,,Mostly Cloudy,220,2013-06-24 14:53:00
10:13 AM,84.2,73.4,70,30.15,10.0,SSE,4.6,-,N/A,,Mostly Cloudy,160,2013-06-24 15:13:00
10:53 AM,84.9,73.0,67,30.13,6.0,SSE,3.5,-,N/A,,Haze,150,2013-06-24 15:53:00
11:53 AM,87.1,73.9,65,30.12,10.0,WNW,9.2,-,N/A,,Mostly Cloudy,300,2013-06-24 16:53:00
12:53 PM,86.0,73.9,67,30.11,10.0,WNW,6.9,-,0.02,,Partly Cloudy,300,2013-06-24 17:53:00
1:53 PM,89.1,69.1,52,30.09,10.0,SW,6.9,-,N/A,,Partly Cloudy,230,2013-06-24 18:53:00
2:05 PM,87.8,69.8,55,30.11,10.0,West,6.9,-,N/A,Thunderstorm,Partly Cloudy,260,2013-06-24 19:05:00
2:20 PM,87.8,69.8,55,30.10,10.0,West,6.9,-,N/A,,Clear,280,2013-06-24 19:20:00
2:31 PM,84.2,71.6,66,30.11,10.0,SW,8.1,-,N/A,Thunderstorm,Thunderstorm,220,2013-06-24 19:31:00
2:53 PM,78.1,72.0,81,30.10,5.0,SE,5.8,-,0.04,Rain-Thunderstorm,Thunderstorms and Rain,140,2013-06-24 19:53:00
3:05 PM,77.0,73.4,89,30.13,1.5,Variable,3.5,-,0.07,Rain-Thunderstorm,Heavy Thunderstorms and Rain,0,2013-06-24 20:05:00
3:19 PM,75.2,73.4,94,30.14,3.0,North,5.8,-,0.12,Rain-Thunderstorm,Light Thunderstorms and Rain,10,2013-06-24 20:19:00
3:53 PM,75.0,73.0,94,30.11,8.0,NE,3.5,-,0.13,Rain-Thunderstorm,Light Rain,40,2013-06-24 20:53:00
4:09 PM,73.4,73.4,100,30.11,8.0,East,3.5,-,0.00,,Mostly Cloudy,90,2013-06-24 21:09:00
4:53 PM,75.0,72.0,90,30.08,10.0,Calm,Calm,-,0.00,,Clear,0,2013-06-24 21:53:00
5:53 PM,75.0,73.0,94,30.06,10.0,Calm,Calm,-,N/A,,Partly Cloudy,0,2013-06-24 22:53:00
6:22 PM,75.2,73.4,94,30.08,10.0,East,3.5,-,N/A,,Scattered Clouds,90,2013-06-24 23:22:00
6:53 PM,75.9,73.0,91,30.05,10.0,WNW,4.6,-,N/A,,Clear,290,2013-06-24 23:53:00
7:53 PM,75.0,73.0,94,30.05,7.0,SE,3.5,-,N/A,,Clear,140,2013-06-25 00:53:00
8:53 PM,75.0,72.0,90,30.08,10.0,East,4.6,-,N/A,,Scattered Clouds,80,2013-06-25 01:53:00
9:17 PM,75.2,73.4,94,30.10,10.0,ENE,4.6,-,N/A,,Partly Cloudy,70,2013-06-25 02:17:00
9:53 PM,75.0,73.0,94,30.10,10.0,East,4.6,-,N/A,,Clear,90,2013-06-25 02:53:00
10:53 PM,73.9,72.0,93,30.11,9.0,Calm,Calm,-,N/A,,Clear,0,2013-06-25 03:53:00
11:53 PM,73.9,72.0,93,30.10,9.0,SSE,3.5,-,N/A,,Clear,150,2013-06-25 04:53:00